createdAt,value
2023-01-29T00:00:01.698Z,1.43
2023-01-29T00:15:02.347Z,1.4
2023-01-29T00:30:02.024Z,1.38
2023-01-29T00:45:01.719Z,1.4
2023-01-29T01:00:02.422Z,1.36
2023-01-29T01:15:02.047Z,1.33
2023-01-29T01:30:01.734Z,1.32
2023-01-29T01:45:02.385Z,1.36
2023-01-29T02:00:02.006Z,1.34
2023-01-29T02:15:01.715Z,1.33
2023-01-29T02:30:02.446Z,1.33
2023-01-29T02:45:02.102Z,1.34
2023-01-29T03:00:01.788Z,1.34
2023-01-29T03:15:02.446Z,1.36
2023-01-29T03:30:02.115Z,1.33
2023-01-29T03:45:01.808Z,1.36
2023-01-29T04:00:02.507Z,1.37
2023-01-29T04:15:02.164Z,1.38
2023-01-29T04:30:01.862Z,1.4
2023-01-29T04:45:02.556Z,1.43
2023-01-29T05:00:02.250Z,1.45
2023-01-29T05:15:01.907Z,1.46
2023-01-29T05:30:02.108Z,1.45
2023-01-29T05:45:01.789Z,1.45
2023-01-29T06:00:02.422Z,1.46
2023-01-29T06:15:02.082Z,1.45
2023-01-29T06:30:01.819Z,1.45
2023-01-29T06:45:02.468Z,1.44
2023-01-29T07:00:02.150Z,1.43
2023-01-29T07:15:01.802Z,1.45
2023-01-29T07:30:02.542Z,1.45
2023-01-29T07:45:02.226Z,1.42
2023-01-29T08:00:01.918Z,1.44
2023-01-29T08:15:01.604Z,1.41
2023-01-29T08:30:02.280Z,1.45
2023-01-29T08:45:01.960Z,1.47
2023-01-29T09:00:01.630Z,1.55
2023-01-29T09:15:02.279Z,1.6
2023-01-29T09:30:01.968Z,1.67
2023-01-29T09:45:01.679Z,1.73
2023-01-29T10:00:02.358Z,1.78
2023-01-29T10:15:02.011Z,1.87
2023-01-29T10:30:01.711Z,1.92
2023-01-29T10:45:02.375Z,2
2023-01-29T11:00:01.981Z,2.02
2023-01-29T11:15:01.652Z,2.12
2023-01-29T11:30:02.337Z,2.18
2023-01-29T11:45:01.963Z,2.28
2023-01-29T12:00:01.619Z,2.38
2023-01-29T12:15:02.281Z,2.41
2023-01-29T12:30:01.921Z,2.46
2023-01-29T12:45:01.622Z,2.51
2023-01-29T13:00:02.273Z,2.43
2023-01-29T13:15:01.931Z,2.5
2023-01-29T13:30:01.652Z,2.56
2023-01-29T13:45:02.321Z,2.57
2023-01-29T14:00:02.008Z,2.58
2023-01-29T14:15:01.638Z,2.55
2023-01-29T14:30:02.377Z,2.52
2023-01-29T14:45:02.103Z,2.54
2023-01-29T15:00:01.778Z,2.48
2023-01-29T15:15:02.501Z,2.42
2023-01-29T15:30:02.290Z,2.37
2023-01-29T15:45:01.994Z,2.23
2023-01-29T16:00:01.730Z,2.18
2023-01-29T16:15:02.363Z,2.13
2023-01-29T16:30:02.062Z,2.03
2023-01-29T16:45:01.718Z,2.03
2023-01-29T17:00:02.375Z,2.02
2023-01-29T17:15:02.019Z,2.04
2023-01-29T17:30:01.775Z,2.03
2023-01-29T17:45:02.479Z,1.98
2023-01-29T18:00:02.105Z,1.91
2023-01-29T18:15:01.870Z,1.94
2023-01-29T18:30:01.882Z,1.94
2023-01-29T18:45:02.554Z,1.95
2023-01-29T19:00:02.232Z,1.95
2023-01-29T19:15:01.942Z,1.95
2023-01-29T19:30:01.655Z,1.94
2023-01-29T19:45:02.292Z,1.91
2023-01-29T20:00:01.944Z,2.01
2023-01-29T20:15:01.611Z,2.02
2023-01-29T20:30:02.356Z,2.05
2023-01-29T20:45:02.001Z,2.14
2023-01-29T21:00:01.682Z,2.17
2023-01-29T21:15:02.406Z,2.27
2023-01-29T21:30:02.140Z,2.28
2023-01-29T21:45:01.768Z,2.36
2023-01-29T22:00:02.428Z,2.44
2023-01-29T22:15:02.039Z,2.53
2023-01-29T22:30:01.722Z,2.6
2023-01-29T22:45:02.347Z,2.67
2023-01-29T23:00:02.029Z,2.79
2023-01-29T23:15:01.771Z,2.92
2023-01-29T23:30:02.476Z,2.97
2023-01-29T23:45:02.253Z,3.06
